createdAt,value
2022-08-03T00:00:39.057Z,20.01
2022-08-03T00:01:41.523Z,20.00
2022-08-03T00:02:42.982Z,20.01
2022-08-03T00:03:44.749Z,19.97
2022-08-03T00:04:46.956Z,19.93
2022-08-03T00:06:03.966Z,19.95
2022-08-03T00:07:06.383Z,20.00
2022-08-03T00:08:07.896Z,20.00
2022-08-03T00:09:10.025Z,20.16
2022-08-03T00:10:13.506Z,20.13
2022-08-03T00:11:15.057Z,20.07
2022-08-03T00:12:16.905Z,19.86
2022-08-03T00:13:19.876Z,19.88
2022-08-03T00:14:21.682Z,19.86
2022-08-03T00:15:23.310Z,19.87
2022-08-03T00:16:26.351Z,19.83
2022-08-03T00:17:27.796Z,19.79
2022-08-03T00:18:29.319Z,19.84
2022-08-03T00:19:31.280Z,19.77
2022-08-03T00:20:32.854Z,19.77
2022-08-03T00:21:34.814Z,19.76
2022-08-03T00:22:36.343Z,19.78
2022-08-03T00:23:52.121Z,19.72
2022-08-03T00:24:54.619Z,19.73
2022-08-03T00:25:56.555Z,19.68
2022-08-03T00:26:58.014Z,19.65
2022-08-03T00:27:59.518Z,19.69
2022-08-03T00:29:01.379Z,19.63
2022-08-03T00:30:03.439Z,19.58
2022-08-03T00:31:04.976Z,19.63
2022-08-03T00:32:06.552Z,19.63
2022-08-03T00:33:12.442Z,19.59
2022-08-03T00:34:16.150Z,19.60
2022-08-03T00:35:29.975Z,19.65
2022-08-03T00:36:38.675Z,19.60
2022-08-03T00:37:41.482Z,19.63
2022-08-03T00:38:43.375Z,19.83
2022-08-03T00:39:47.558Z,19.87
2022-08-03T00:40:49.193Z,19.74
2022-08-03T00:41:50.737Z,19.61
2022-08-03T00:42:58.478Z,19.58
2022-08-03T00:43:59.976Z,19.58
2022-08-03T00:45:01.790Z,19.63
2022-08-03T00:46:03.299Z,19.55
2022-08-03T00:47:04.885Z,19.47
2022-08-03T00:48:29.500Z,19.44
2022-08-03T00:49:30.306Z,19.34
2022-08-03T00:50:35.074Z,19.36
2022-08-03T00:51:36.558Z,19.45
2022-08-03T00:52:38.038Z,19.43
2022-08-03T00:53:39.707Z,19.40
2022-08-03T00:54:41.271Z,19.36
2022-08-03T00:55:44.047Z,19.39
2022-08-03T00:56:59.477Z,19.34
2022-08-03T00:58:06.582Z,19.38
2022-08-03T00:59:10.659Z,19.41
2022-08-03T01:00:26.599Z,19.29
2022-08-03T01:01:32.175Z,19.13
2022-08-03T01:02:34.126Z,19.13
2022-08-03T01:03:35.663Z,19.16
2022-08-03T01:04:37.173Z,19.29
2022-08-03T01:06:10.492Z,19.29
2022-08-03T01:07:30.198Z,19.10
2022-08-03T01:08:42.596Z,19.10
2022-08-03T01:10:23.262Z,19.01
2022-08-03T01:12:00.935Z,19.04
2022-08-03T01:13:59.910Z,19.03
2022-08-03T01:14:54.691Z,18.95
2022-08-03T01:16:14.888Z,18.96
2022-08-03T01:17:25.255Z,18.94
2022-08-03T01:18:43.729Z,18.98
2022-08-03T01:20:08.675Z,18.94
2022-08-03T01:21:14.660Z,18.97
2022-08-03T01:22:37.141Z,18.96
2022-08-03T01:24:03.800Z,18.94
2022-08-03T01:25:24.802Z,18.92
2022-08-03T01:26:44.851Z,18.84
2022-08-03T01:28:02.768Z,18.86
2022-08-03T01:29:17.312Z,18.89
2022-08-03T01:30:19.992Z,18.89
2022-08-03T01:31:26.196Z,18.84
2022-08-03T01:32:59.365Z,18.84
2022-08-03T01:34:00.462Z,18.87
2022-08-03T01:35:11.069Z,18.90
2022-08-03T01:36:22.553Z,18.95
2022-08-03T01:37:28.084Z,18.87
2022-08-03T01:38:33.739Z,18.80
2022-08-03T01:39:38.182Z,18.77
2022-08-03T01:40:41.679Z,18.80
2022-08-03T01:41:53.344Z,18.77
2022-08-03T01:42:57.521Z,18.73
2022-08-03T01:44:29.986Z,18.60
2022-08-03T01:45:25.035Z,18.59
2022-08-03T01:46:26.943Z,18.62
2022-08-03T01:47:30.544Z,18.66
2022-08-03T01:48:33.244Z,18.65
2022-08-03T01:49:39.467Z,18.69
2022-08-03T01:50:42.449Z,18.55
2022-08-03T01:51:58.384Z,18.48
2022-08-03T01:53:09.273Z,18.52
2022-08-03T01:54:12.637Z,18.56
2022-08-03T01:55:19.276Z,18.62
2022-08-03T01:56:24.262Z,18.64
2022-08-03T01:57:29.109Z,18.61
2022-08-03T01:58:33.659Z,18.63
2022-08-03T01:59:37.516Z,18.62
2022-08-03T02:00:40.935Z,18.72
2022-08-03T02:02:29.788Z,18.61
2022-08-03T02:03:07.190Z,18.52
2022-08-03T02:04:10.863Z,18.53
2022-08-03T02:05:14.760Z,18.52
2022-08-03T02:07:01.813Z,18.44
2022-08-03T02:07:43.066Z,18.29
2022-08-03T02:08:45.360Z,18.25
2022-08-03T02:09:51.630Z,18.30
2022-08-03T02:10:57.599Z,18.27
2022-08-03T02:12:00.766Z,18.26
2022-08-03T02:13:04.305Z,18.34
2022-08-03T02:14:06.673Z,18.36
2022-08-03T02:15:09.300Z,18.35
2022-08-03T02:16:14.390Z,18.38
2022-08-03T02:17:16.253Z,18.35
2022-08-03T02:18:19.044Z,18.41
2022-08-03T02:19:21.690Z,18.44
2022-08-03T02:20:24.567Z,18.36
2022-08-03T02:21:55.602Z,18.48
2022-08-03T02:22:49.619Z,18.59
2022-08-03T02:23:51.080Z,18.52
2022-08-03T02:24:52.535Z,18.43
2022-08-03T02:25:59.874Z,18.41
2022-08-03T02:27:06.042Z,18.36
2022-08-03T02:28:15.875Z,18.36
2022-08-03T02:29:21.770Z,18.33
2022-08-03T02:30:45.828Z,18.36
2022-08-03T02:31:58.138Z,18.48
2022-08-03T02:33:02.034Z,18.54
2022-08-03T02:34:08.750Z,18.57
2022-08-03T02:35:13.323Z,18.66
2022-08-03T02:36:20.037Z,18.59
2022-08-03T02:37:23.862Z,18.54
2022-08-03T02:38:31.288Z,18.38
2022-08-03T02:39:35.672Z,18.45
2022-08-03T02:40:39.616Z,18.51
2022-08-03T02:41:52.992Z,18.44
2022-08-03T02:42:57.978Z,18.41
2022-08-03T02:44:06.965Z,18.45
2022-08-03T02:45:14.902Z,18.45
2022-08-03T02:46:20.153Z,18.36
2022-08-03T02:47:22.560Z,18.25
2022-08-03T02:48:28.650Z,18.14
2022-08-03T02:49:40.551Z,18.15
2022-08-03T02:50:54.783Z,18.17
2022-08-03T02:51:59.316Z,18.27
2022-08-03T02:53:03.019Z,18.30
2022-08-03T02:54:06.407Z,18.19
2022-08-03T02:55:10.921Z,18.00
2022-08-03T02:56:14.773Z,17.84
2022-08-03T02:57:18.929Z,17.70
2022-08-03T02:58:23.596Z,17.52
2022-08-03T02:59:27.570Z,17.35
2022-08-03T03:00:31.906Z,17.22
2022-08-03T03:01:34.245Z,17.09
2022-08-03T03:02:37.066Z,17.08
2022-08-03T03:03:45.054Z,17.07
2022-08-03T03:05:52.133Z,17.10
2022-08-03T03:06:13.415Z,17.25
2022-08-03T03:07:17.976Z,17.30
2022-08-03T03:08:26.858Z,17.47
2022-08-03T03:09:41.492Z,17.54
2022-08-03T03:10:45.195Z,17.54
2022-08-03T03:11:49.322Z,17.53
2022-08-03T03:12:55.163Z,17.51
2022-08-03T03:13:57.561Z,17.51
2022-08-03T03:14:59.085Z,17.48
2022-08-03T03:16:02.562Z,17.65
2022-08-03T03:17:05.284Z,17.65
2022-08-03T03:18:09.989Z,17.63
2022-08-03T03:19:14.188Z,17.64
2022-08-03T03:20:16.022Z,17.72
2022-08-03T03:21:33.468Z,17.84
2022-08-03T03:22:36.126Z,17.78
2022-08-03T03:23:39.942Z,17.73
2022-08-03T03:24:44.075Z,17.63
2022-08-03T03:25:46.031Z,17.65
2022-08-03T03:26:49.112Z,17.65
2022-08-03T03:27:51.181Z,17.71
2022-08-03T03:28:52.885Z,17.70
2022-08-03T03:29:54.694Z,17.59
2022-08-03T03:30:56.510Z,17.58
2022-08-03T03:31:58.423Z,17.57
2022-08-03T03:33:02.983Z,17.56
2022-08-03T03:34:05.135Z,17.49
2022-08-03T03:35:09.729Z,17.53
2022-08-03T03:36:11.599Z,17.50
2022-08-03T03:37:13.097Z,17.55
2022-08-03T03:38:14.649Z,17.52
2022-08-03T03:39:16.245Z,17.58
2022-08-03T03:40:17.836Z,17.60
2022-08-03T03:41:19.773Z,17.55
2022-08-03T03:42:22.336Z,17.52
2022-08-03T03:43:24.835Z,17.47
2022-08-03T03:44:28.629Z,17.46
2022-08-03T03:45:31.097Z,17.47
2022-08-03T03:46:33.276Z,17.53
2022-08-03T03:47:35.837Z,17.52
2022-08-03T03:48:38.887Z,17.56
2022-08-03T03:49:42.939Z,17.50
2022-08-03T03:50:45.570Z,17.43
2022-08-03T03:51:47.392Z,17.22
2022-08-03T03:52:48.853Z,17.09
2022-08-03T03:54:01.985Z,17.11
2022-08-03T03:55:03.820Z,17.18
2022-08-03T03:56:05.698Z,17.14
2022-08-03T03:57:07.234Z,17.23
2022-08-03T03:58:09.052Z,17.26
2022-08-03T03:59:10.910Z,17.18
2022-08-03T04:00:15.269Z,17.19
2022-08-03T04:01:17.671Z,17.23
2022-08-03T04:02:19.165Z,17.23
2022-08-03T04:03:20.676Z,17.26
2022-08-03T04:04:40.863Z,17.35
2022-08-03T04:06:01.753Z,17.38
2022-08-03T04:07:22.227Z,17.42
2022-08-03T04:08:41.988Z,17.38
2022-08-03T04:10:08.789Z,17.35
2022-08-03T04:11:38.604Z,17.36
2022-08-03T04:12:50.150Z,17.43
2022-08-03T04:14:05.243Z,17.54
2022-08-03T04:15:08.074Z,17.50
2022-08-03T04:16:14.837Z,17.43
2022-08-03T04:17:17.330Z,17.40
2022-08-03T04:18:20.065Z,17.43
2022-08-03T04:19:35.170Z,17.31
2022-08-03T04:20:37.510Z,17.31
2022-08-03T04:21:43.732Z,17.22
2022-08-03T04:22:47.988Z,17.08
2022-08-03T04:23:53.032Z,17.03
2022-08-03T04:25:01.082Z,17.06
2022-08-03T04:26:05.488Z,17.27
2022-08-03T04:27:09.464Z,17.22
2022-08-03T04:28:30.486Z,17.28
2022-08-03T04:29:34.976Z,17.36
2022-08-03T04:30:47.495Z,17.43
2022-08-03T04:31:50.014Z,17.40
2022-08-03T04:32:51.956Z,17.35
2022-08-03T04:33:54.573Z,17.31
2022-08-03T04:34:56.232Z,17.29
2022-08-03T04:36:02.915Z,17.22
2022-08-03T04:37:13.183Z,17.27
2022-08-03T04:38:18.485Z,17.20
2022-08-03T04:39:25.653Z,17.23
2022-08-03T04:40:37.080Z,17.26
2022-08-03T04:42:07.188Z,17.22
2022-08-03T04:43:02.297Z,17.19
2022-08-03T04:44:04.816Z,17.33
2022-08-03T04:45:08.062Z,17.32
2022-08-03T04:46:11.088Z,17.44
2022-08-03T04:47:12.917Z,17.48
2022-08-03T04:48:15.400Z,17.41
2022-08-03T04:49:17.423Z,17.54
2022-08-03T04:50:21.662Z,17.61
2022-08-03T04:51:23.624Z,17.67
2022-08-03T04:52:25.487Z,17.71
2022-08-03T04:53:27.020Z,17.75
2022-08-03T04:54:28.532Z,17.72
2022-08-03T04:55:32.026Z,17.77
2022-08-03T04:56:34.681Z,17.79
2022-08-03T04:57:36.208Z,17.88
2022-08-03T04:58:37.729Z,17.89
2022-08-03T04:59:40.941Z,17.78
2022-08-03T05:00:43.068Z,17.74
2022-08-03T05:01:44.688Z,17.78
2022-08-03T05:02:46.581Z,17.84
2022-08-03T05:03:48.058Z,17.89
2022-08-03T05:04:49.638Z,17.89
2022-08-03T05:06:01.859Z,18.00
2022-08-03T05:07:12.638Z,18.04
2022-08-03T05:08:14.193Z,18.07
2022-08-03T05:09:16.072Z,18.10
2022-08-03T05:10:37.535Z,18.16
2022-08-03T05:11:38.987Z,18.18
2022-08-03T05:12:41.325Z,18.21
2022-08-03T05:13:43.731Z,18.20
2022-08-03T05:14:45.170Z,18.20
2022-08-03T05:15:46.616Z,18.17
2022-08-03T05:16:48.060Z,18.17
2022-08-03T05:17:49.904Z,18.23
2022-08-03T05:18:51.431Z,18.25
2022-08-03T05:19:52.933Z,18.31
2022-08-03T05:20:54.361Z,18.28
2022-08-03T05:21:55.846Z,18.37
2022-08-03T05:22:58.231Z,18.43
2022-08-03T05:24:01.252Z,18.40
2022-08-03T05:25:04.008Z,18.37
2022-08-03T05:26:05.574Z,18.39
2022-08-03T05:27:07.001Z,18.40
2022-08-03T05:28:08.766Z,18.42
2022-08-03T05:29:10.253Z,18.41
2022-08-03T05:30:32.287Z,18.48
2022-08-03T05:31:33.479Z,18.56
2022-08-03T05:32:35.294Z,18.62
2022-08-03T05:33:36.762Z,18.62
2022-08-03T05:34:39.008Z,18.64
2022-08-03T05:36:02.677Z,18.66
2022-08-03T05:37:02.396Z,18.70
2022-08-03T05:38:04.206Z,18.73
2022-08-03T05:39:07.290Z,18.76
2022-08-03T05:40:09.396Z,18.81
2022-08-03T05:41:22.683Z,18.85
2022-08-03T05:42:25.827Z,18.88
2022-08-03T05:43:27.404Z,18.93
2022-08-03T05:44:29.155Z,18.98
2022-08-03T05:45:32.170Z,19.05
2022-08-03T05:46:33.625Z,19.06
2022-08-03T05:47:35.392Z,19.04
2022-08-03T05:48:36.854Z,19.10
2022-08-03T05:49:38.410Z,19.16
2022-08-03T05:50:42.764Z,19.25
2022-08-03T05:51:44.750Z,19.32
2022-08-03T05:52:47.035Z,19.33
2022-08-03T05:53:48.981Z,19.34
2022-08-03T05:54:55.819Z,19.35
2022-08-03T05:56:02.502Z,19.39
2022-08-03T05:57:17.447Z,19.42
2022-08-03T05:58:19.026Z,19.45
2022-08-03T05:59:37.653Z,19.51
2022-08-03T06:00:39.783Z,19.52
2022-08-03T06:01:41.307Z,19.55
2022-08-03T06:02:43.350Z,19.55
2022-08-03T06:03:45.900Z,19.58
2022-08-03T06:04:47.357Z,19.61
2022-08-03T06:05:55.545Z,19.66
2022-08-03T06:07:02.269Z,19.73
2022-08-03T06:08:04.015Z,19.76
2022-08-03T06:09:05.591Z,19.81
2022-08-03T06:10:36.753Z,19.81
2022-08-03T06:11:29.210Z,19.86
2022-08-03T06:12:31.463Z,19.89
2022-08-03T06:13:33.116Z,19.92
2022-08-03T06:14:34.584Z,19.98
2022-08-03T06:15:36.443Z,20.02
2022-08-03T06:16:37.992Z,20.04
2022-08-03T06:17:50.202Z,20.07
2022-08-03T06:18:51.683Z,20.13
2022-08-03T06:19:53.838Z,20.17
2022-08-03T06:20:55.762Z,20.20
2022-08-03T06:21:57.226Z,20.22
2022-08-03T06:23:00.502Z,20.26
2022-08-03T06:24:03.022Z,20.31
2022-08-03T06:25:11.270Z,20.36
2022-08-03T06:26:14.573Z,20.42
2022-08-03T06:27:16.473Z,20.53
2022-08-03T06:28:51.482Z,20.76
2022-08-03T06:29:40.154Z,20.82
2022-08-03T06:30:41.939Z,20.78
2022-08-03T06:31:43.439Z,20.74
2022-08-03T06:32:52.195Z,20.74
2022-08-03T06:34:33.748Z,20.75
2022-08-03T06:35:16.302Z,20.78
2022-08-03T06:36:17.782Z,20.81
2022-08-03T06:37:19.243Z,20.84
2022-08-03T06:38:21.217Z,20.85
2022-08-03T06:39:23.526Z,20.89
2022-08-03T06:40:29.813Z,20.85
2022-08-03T06:41:31.463Z,20.89
2022-08-03T06:42:39.548Z,20.97
2022-08-03T06:44:03.379Z,21.02
2022-08-03T06:45:04.057Z,21.04
2022-08-03T06:46:05.729Z,21.10
2022-08-03T06:47:07.205Z,21.16
2022-08-03T06:48:13.271Z,21.22
2022-08-03T06:49:14.787Z,21.28
2022-08-03T06:50:21.762Z,21.26
2022-08-03T06:52:05.656Z,21.34
2022-08-03T06:52:47.909Z,21.42
2022-08-03T06:53:49.929Z,21.46
2022-08-03T06:54:51.402Z,21.50
2022-08-03T06:55:54.833Z,21.57
2022-08-03T06:56:56.940Z,21.71
2022-08-03T06:57:59.305Z,21.80
2022-08-03T06:59:05.342Z,21.95
2022-08-03T07:00:12.280Z,22.06
2022-08-03T07:01:14.128Z,22.13
2022-08-03T07:02:20.389Z,22.21
2022-08-03T07:03:22.321Z,22.27
2022-08-03T07:04:23.782Z,22.39
2022-08-03T07:05:25.749Z,22.42
2022-08-03T07:06:27.373Z,22.54
2022-08-03T07:07:28.837Z,22.61
2022-08-03T07:08:33.338Z,22.66
2022-08-03T07:09:35.466Z,22.78
2022-08-03T07:10:37.233Z,22.83
2022-08-03T07:11:38.719Z,22.86
2022-08-03T07:12:56.194Z,22.91
2022-08-03T07:13:58.473Z,22.97
2022-08-03T07:15:02.631Z,23.16
2022-08-03T07:16:05.019Z,23.21
2022-08-03T07:17:11.442Z,23.21
2022-08-03T07:18:13.893Z,23.29
2022-08-03T07:19:15.615Z,23.34
2022-08-03T07:20:18.351Z,23.42
2022-08-03T07:21:19.831Z,23.57
2022-08-03T07:22:21.310Z,23.64
2022-08-03T07:23:23.081Z,23.69
2022-08-03T07:24:24.692Z,23.69
2022-08-03T07:25:28.968Z,23.75
2022-08-03T07:26:30.584Z,23.74
2022-08-03T07:27:32.229Z,23.80
2022-08-03T07:28:34.084Z,23.91
2022-08-03T07:29:36.009Z,24.02
2022-08-03T07:30:37.501Z,23.96
2022-08-03T07:31:38.961Z,24.06
2022-08-03T07:32:49.730Z,24.12
2022-08-03T07:33:52.759Z,24.24
2022-08-03T07:34:59.925Z,24.33
2022-08-03T07:36:02.296Z,24.43
2022-08-03T07:37:03.826Z,24.67
2022-08-03T07:38:05.351Z,24.86
2022-08-03T07:39:16.619Z,24.91
2022-08-03T07:40:20.111Z,24.92
2022-08-03T07:41:21.591Z,24.96
2022-08-03T07:42:26.232Z,25.01
2022-08-03T07:43:27.994Z,25.07
2022-08-03T07:44:29.468Z,25.02
2022-08-03T07:45:31.770Z,25.01
2022-08-03T07:46:33.442Z,25.10
2022-08-03T07:47:36.029Z,25.20
2022-08-03T07:48:37.927Z,25.28
2022-08-03T07:49:41.154Z,25.37
2022-08-03T07:50:42.873Z,25.47
2022-08-03T07:51:44.411Z,25.54
2022-08-03T07:52:49.350Z,25.59
2022-08-03T07:53:51.160Z,25.63
2022-08-03T07:54:54.570Z,25.65
2022-08-03T07:55:56.985Z,25.73
2022-08-03T07:56:58.431Z,25.81
2022-08-03T07:58:05.577Z,25.76
2022-08-03T07:59:07.083Z,25.84
2022-08-03T08:00:15.965Z,25.91
2022-08-03T08:01:19.462Z,25.88
2022-08-03T08:02:20.980Z,25.88
2022-08-03T08:03:23.569Z,25.91
2022-08-03T08:04:25.036Z,26.02
2022-08-03T08:05:26.708Z,26.12
2022-08-03T08:06:28.148Z,26.20
2022-08-03T08:07:29.895Z,26.24
2022-08-03T08:08:31.867Z,26.35
2022-08-03T08:09:34.184Z,26.46
2022-08-03T08:10:37.049Z,26.63
2022-08-03T08:11:40.084Z,26.53
2022-08-03T08:12:41.760Z,26.53
2022-08-03T08:13:43.226Z,26.51
2022-08-03T08:14:47.565Z,26.61
2022-08-03T08:15:49.013Z,26.69
2022-08-03T08:16:51.920Z,26.81
2022-08-03T08:17:59.042Z,26.92
2022-08-03T08:19:02.021Z,26.99
2022-08-03T08:20:03.830Z,27.11
2022-08-03T08:21:08.750Z,27.10
2022-08-03T08:22:10.255Z,27.06
2022-08-03T08:23:37.853Z,27.08
2022-08-03T08:24:34.903Z,27.15
2022-08-03T08:25:38.473Z,27.15
2022-08-03T08:26:39.963Z,27.20
2022-08-03T08:28:29.417Z,27.40
2022-08-03T08:29:07.326Z,27.43
2022-08-03T08:30:12.175Z,27.54
2022-08-03T08:31:13.778Z,27.60
2022-08-03T08:32:16.418Z,27.60
2022-08-03T08:33:23.369Z,27.49
2022-08-03T08:34:26.233Z,27.54
2022-08-03T08:35:27.891Z,27.58
2022-08-03T08:36:29.315Z,27.61
2022-08-03T08:37:30.801Z,27.65
2022-08-03T08:38:34.776Z,27.71
2022-08-03T08:39:36.221Z,27.78
2022-08-03T08:40:37.660Z,27.88
2022-08-03T08:41:39.231Z,27.93
2022-08-03T08:42:58.094Z,28.03
2022-08-03T08:44:01.066Z,28.03
2022-08-03T08:45:05.202Z,28.08
2022-08-03T08:46:11.998Z,28.04
2022-08-03T08:47:14.853Z,28.05
2022-08-03T08:48:20.488Z,28.09
2022-08-03T08:49:26.226Z,28.16
2022-08-03T08:50:28.504Z,28.16
2022-08-03T08:51:51.040Z,28.19
2022-08-03T08:53:01.047Z,28.27
2022-08-03T08:54:04.606Z,28.22
2022-08-03T08:55:08.387Z,28.16
2022-08-03T08:56:17.460Z,28.12
2022-08-03T08:57:40.667Z,28.05
2022-08-03T08:58:49.533Z,28.08
2022-08-03T08:59:57.167Z,28.11
2022-08-03T09:00:59.058Z,28.14
2022-08-03T09:02:01.180Z,28.10
2022-08-03T09:03:03.081Z,27.87
2022-08-03T09:04:07.350Z,27.75
2022-08-03T09:05:16.676Z,27.71
2022-08-03T09:06:18.093Z,27.92
2022-08-03T09:07:20.734Z,28.05
2022-08-03T09:08:23.231Z,28.08
2022-08-03T09:10:04.621Z,28.14
2022-08-03T09:10:46.488Z,28.16
2022-08-03T09:12:00.378Z,28.18
2022-08-03T09:13:10.576Z,28.36
2022-08-03T09:14:36.727Z,28.56
2022-08-03T09:15:34.130Z,28.60
2022-08-03T09:16:35.615Z,28.61
2022-08-03T09:17:41.086Z,28.55
2022-08-03T09:18:45.616Z,28.44
2022-08-03T09:20:10.247Z,28.42
2022-08-03T09:21:30.676Z,28.38
2022-08-03T09:22:33.512Z,28.30
2022-08-03T09:24:02.294Z,28.23
2022-08-03T09:25:23.915Z,28.36
2022-08-03T09:26:28.544Z,28.28
2022-08-03T09:27:42.622Z,28.32
2022-08-03T09:28:59.736Z,28.26
2022-08-03T09:30:33.559Z,28.15
2022-08-03T09:31:43.367Z,28.08
2022-08-03T09:32:46.322Z,28.39
2022-08-03T09:33:48.746Z,28.36
2022-08-03T09:34:56.538Z,28.27
2022-08-03T09:35:59.801Z,28.22
2022-08-03T09:37:01.311Z,28.12
2022-08-03T09:38:14.591Z,28.10
2022-08-03T09:39:40.991Z,28.06
2022-08-03T09:40:44.848Z,28.09
2022-08-03T09:41:48.794Z,28.13
2022-08-03T09:42:57.034Z,28.10
2022-08-03T09:43:59.087Z,28.10
2022-08-03T09:45:01.760Z,28.06
2022-08-03T09:46:07.747Z,28.16
2022-08-03T09:47:10.953Z,28.14
2022-08-03T09:48:35.025Z,28.10
2022-08-03T09:49:38.794Z,28.06
2022-08-03T09:50:57.135Z,28.19
2022-08-03T09:52:33.020Z,28.19
2022-08-03T09:53:51.492Z,28.16
2022-08-03T09:55:04.218Z,28.22
2022-08-03T09:56:33.783Z,28.23
2022-08-03T09:57:28.846Z,28.21
2022-08-03T09:58:31.329Z,28.21
2022-08-03T09:59:34.029Z,28.24
2022-08-03T10:01:04.473Z,28.48
2022-08-03T10:02:25.083Z,28.56
2022-08-03T10:03:29.242Z,28.61
2022-08-03T10:04:30.833Z,28.55
2022-08-03T10:05:33.476Z,28.61
2022-08-03T10:06:35.055Z,28.65
2022-08-03T10:07:47.641Z,28.69
2022-08-03T10:09:24.830Z,28.78
2022-08-03T10:10:29.322Z,28.76
2022-08-03T10:11:40.929Z,28.75
2022-08-03T10:12:44.961Z,28.92
2022-08-03T10:13:47.595Z,28.96
2022-08-03T10:14:49.430Z,28.98
2022-08-03T10:16:24.987Z,28.93
2022-08-03T10:17:13.363Z,28.89
2022-08-03T10:18:14.967Z,28.84
2022-08-03T10:19:17.438Z,28.87
2022-08-03T10:20:19.386Z,28.98
2022-08-03T10:21:21.582Z,29.05
2022-08-03T10:22:24.445Z,29.14
2022-08-03T10:23:27.834Z,29.16
2022-08-03T10:24:34.033Z,29.26
2022-08-03T10:25:38.100Z,29.33
2022-08-03T10:26:49.746Z,29.56
2022-08-03T10:27:53.126Z,29.62
2022-08-03T10:28:58.981Z,29.53
2022-08-03T10:30:09.323Z,29.50
2022-08-03T10:31:13.071Z,29.51
2022-08-03T10:32:21.440Z,29.53
2022-08-03T10:33:51.298Z,29.66
2022-08-03T10:35:00.325Z,29.72
2022-08-03T10:36:07.731Z,29.83
2022-08-03T10:37:12.451Z,29.69
2022-08-03T10:38:19.892Z,29.80
2022-08-03T10:39:24.112Z,29.76
2022-08-03T10:41:51.815Z,29.77
2022-08-03T10:42:56.643Z,29.85
2022-08-03T10:44:10.845Z,29.80
2022-08-03T10:45:20.871Z,29.79
2022-08-03T10:46:22.420Z,29.81
2022-08-03T10:47:24.280Z,29.91
2022-08-03T10:48:26.763Z,29.94
2022-08-03T10:49:34.557Z,29.99
2022-08-03T10:50:37.344Z,30.15
2022-08-03T10:51:39.356Z,30.17
2022-08-03T10:52:57.815Z,30.08
2022-08-03T10:54:01.794Z,30.21
2022-08-03T10:55:48.849Z,30.12
2022-08-03T10:57:14.747Z,30.13
2022-08-03T10:58:53.139Z,30.27
2022-08-03T11:00:00.613Z,30.33
2022-08-03T11:01:03.349Z,30.41
2022-08-03T11:02:08.316Z,30.47
2022-08-03T11:03:10.982Z,30.45
2022-08-03T11:04:17.057Z,30.56
2022-08-03T11:05:33.089Z,30.50
2022-08-03T11:06:37.572Z,30.59
2022-08-03T11:07:39.347Z,30.55
2022-08-03T11:08:41.035Z,30.46
2022-08-03T11:09:44.173Z,30.57
2022-08-03T11:10:46.929Z,30.70
2022-08-03T11:11:48.920Z,30.56
2022-08-03T11:12:50.783Z,30.59
2022-08-03T11:14:07.623Z,30.50
2022-08-03T11:15:09.399Z,30.52
2022-08-03T11:16:22.338Z,30.56
2022-08-03T11:17:24.677Z,30.65
2022-08-03T11:18:26.976Z,30.59
2022-08-03T11:19:57.971Z,30.60
2022-08-03T11:21:01.617Z,30.67
2022-08-03T11:22:03.360Z,30.65
2022-08-03T11:23:05.257Z,30.60
2022-08-03T11:24:07.146Z,30.70
2022-08-03T11:25:08.842Z,30.80
2022-08-03T11:26:30.667Z,30.76
2022-08-03T11:27:35.918Z,30.70
2022-08-03T11:28:41.096Z,30.70
2022-08-03T11:30:06.559Z,30.75
2022-08-03T11:31:47.960Z,30.67
2022-08-03T11:32:46.830Z,30.60
2022-08-03T11:34:07.106Z,30.53
2022-08-03T11:35:21.954Z,30.52
2022-08-03T11:36:32.562Z,30.58
2022-08-03T11:37:34.949Z,30.55
2022-08-03T11:39:16.957Z,30.72
2022-08-03T11:40:40.426Z,30.52
2022-08-03T11:41:45.364Z,30.53
2022-08-03T11:42:48.442Z,30.40
2022-08-03T11:43:49.971Z,30.29
2022-08-03T11:44:56.454Z,30.28
2022-08-03T11:45:58.019Z,30.37
2022-08-03T11:47:00.722Z,30.46
2022-08-03T11:48:15.895Z,30.49
2022-08-03T11:49:23.642Z,30.47
2022-08-03T11:50:25.763Z,30.69
2022-08-03T11:51:29.189Z,30.78
2022-08-03T11:52:40.110Z,30.85
2022-08-03T11:53:43.891Z,30.76
2022-08-03T11:54:46.902Z,30.83
2022-08-03T11:55:49.046Z,30.69
2022-08-03T11:56:51.022Z,30.67
2022-08-03T11:59:15.256Z,30.75
2022-08-03T11:59:19.989Z,30.93
2022-08-03T12:00:31.935Z,31.03
2022-08-03T12:01:33.621Z,30.99
2022-08-03T12:02:35.462Z,31.04
2022-08-03T12:03:37.335Z,31.08
2022-08-03T12:04:52.209Z,31.13
2022-08-03T12:05:54.783Z,31.10
2022-08-03T12:07:00.366Z,31.13
2022-08-03T12:08:04.373Z,31.17
2022-08-03T12:09:16.872Z,31.20
2022-08-03T12:10:18.449Z,31.24
2022-08-03T12:11:20.043Z,31.23
2022-08-03T12:12:21.758Z,31.31
2022-08-03T12:14:35.673Z,31.35
2022-08-03T12:14:58.447Z,31.35
2022-08-03T12:16:00.009Z,31.32
2022-08-03T12:17:01.796Z,31.42
2022-08-03T12:18:13.142Z,31.46
2022-08-03T12:19:14.997Z,31.57
2022-08-03T12:20:35.006Z,31.67
2022-08-03T12:21:57.225Z,31.84
2022-08-03T12:23:04.502Z,31.56
2022-08-03T12:24:06.449Z,31.64
2022-08-03T12:25:09.523Z,31.66
2022-08-03T12:26:11.193Z,31.49
2022-08-03T12:27:12.801Z,31.36
2022-08-03T12:28:36.582Z,31.36
2022-08-03T12:29:39.474Z,31.41
2022-08-03T12:30:41.665Z,31.56
2022-08-03T12:31:43.207Z,31.63
2022-08-03T12:32:45.034Z,31.81
2022-08-03T12:33:58.745Z,31.76
2022-08-03T12:35:02.125Z,31.91
2022-08-03T12:36:07.112Z,32.00
2022-08-03T12:37:22.349Z,32.12
2022-08-03T12:38:24.392Z,31.97
2022-08-03T12:39:31.360Z,31.91
2022-08-03T12:40:33.047Z,31.90
2022-08-03T12:41:39.151Z,32.07
2022-08-03T12:42:40.957Z,32.04
2022-08-03T12:43:49.558Z,32.46
2022-08-03T12:44:51.232Z,32.55
2022-08-03T12:46:12.611Z,32.15
2022-08-03T12:47:15.828Z,32.15
2022-08-03T12:48:17.302Z,32.22
2022-08-03T12:49:19.877Z,32.30
2022-08-03T12:50:36.083Z,32.42
2022-08-03T12:52:03.919Z,32.51
2022-08-03T12:53:10.013Z,32.52
2022-08-03T12:54:24.814Z,32.32
2022-08-03T12:55:57.767Z,32.21
2022-08-03T12:57:16.052Z,32.26
2022-08-03T12:58:34.196Z,32.40
2022-08-03T12:59:53.551Z,32.54
2022-08-03T13:00:56.159Z,32.57
2022-08-03T13:01:58.249Z,32.42
2022-08-03T13:04:33.742Z,32.25
2022-08-03T13:05:45.141Z,32.17
2022-08-03T13:06:57.978Z,32.17
2022-08-03T13:08:04.980Z,32.31
2022-08-03T13:09:08.583Z,32.48
2022-08-03T13:10:10.947Z,32.48
2022-08-03T13:11:23.489Z,32.30
2022-08-03T13:12:49.564Z,32.39
2022-08-03T13:13:52.967Z,32.57
2022-08-03T13:14:59.979Z,32.64
2022-08-03T13:16:01.491Z,32.73
2022-08-03T13:17:03.989Z,32.82
2022-08-03T13:18:05.587Z,32.92
2022-08-03T13:19:15.589Z,33.01
2022-08-03T13:20:17.560Z,33.07
2022-08-03T13:21:20.957Z,33.10
2022-08-03T13:22:24.871Z,33.11
2022-08-03T13:23:26.417Z,33.25
2022-08-03T13:24:27.982Z,33.33
2022-08-03T13:25:31.950Z,33.27
2022-08-03T13:26:33.402Z,33.31
2022-08-03T13:28:03.979Z,33.46
2022-08-03T13:28:56.287Z,33.59
2022-08-03T13:29:57.918Z,33.64
2022-08-03T13:30:59.469Z,33.77
2022-08-03T13:32:02.824Z,33.81
2022-08-03T13:33:04.271Z,33.95
2022-08-03T13:34:06.069Z,33.93
2022-08-03T13:35:09.101Z,34.00
2022-08-03T13:36:10.530Z,34.02
2022-08-03T13:37:12.386Z,34.10
2022-08-03T13:38:15.334Z,33.77
2022-08-03T13:39:20.258Z,33.61
2022-08-03T13:40:23.644Z,33.32
2022-08-03T13:41:31.534Z,33.55
2022-08-03T13:42:35.554Z,33.45
2022-08-03T13:43:37.478Z,33.33
2022-08-03T13:44:38.956Z,33.54
2022-08-03T13:45:40.418Z,33.68
2022-08-03T13:46:42.095Z,33.71
2022-08-03T13:47:43.606Z,33.68
2022-08-03T13:48:45.426Z,33.45
2022-08-03T13:49:56.987Z,33.26
2022-08-03T13:51:11.864Z,33.14
2022-08-03T13:52:23.661Z,33.33
2022-08-03T13:53:25.156Z,33.35
2022-08-03T13:54:27.189Z,33.49
2022-08-03T13:55:28.648Z,33.74
2022-08-03T13:56:30.782Z,33.94
2022-08-03T13:58:11.433Z,33.96
2022-08-03T13:58:54.601Z,33.72
2022-08-03T13:59:56.117Z,33.87
2022-08-03T14:00:57.622Z,33.91
2022-08-03T14:01:59.283Z,34.02
2022-08-03T14:03:09.067Z,34.11
2022-08-03T14:04:15.753Z,34.08
2022-08-03T14:05:24.169Z,34.03
2022-08-03T14:06:26.077Z,34.06
2022-08-03T14:07:27.537Z,34.21
2022-08-03T14:08:29.157Z,34.00
2022-08-03T14:09:30.939Z,33.75
2022-08-03T14:10:41.242Z,33.70
2022-08-03T14:12:06.832Z,33.71
2022-08-03T14:13:06.853Z,33.57
2022-08-03T14:14:08.825Z,33.60
2022-08-03T14:15:12.996Z,33.69
2022-08-03T14:16:16.935Z,33.69
2022-08-03T14:17:19.226Z,33.86
2022-08-03T14:18:29.239Z,34.00
2022-08-03T14:19:44.888Z,34.14